createdAt,value
2023-02-11T00:01:37.352Z,91.57
2023-02-11T00:04:06.484Z,90.25
2023-02-11T00:06:36.826Z,88.26
2023-02-11T00:09:05.568Z,88.61
2023-02-11T00:11:33.111Z,90.57
2023-02-11T00:14:02.900Z,90.99
2023-02-11T00:16:31.886Z,91.72
2023-02-11T00:19:00.039Z,91.70
2023-02-11T00:21:28.449Z,91.90
2023-02-11T00:23:59.693Z,93.77
2023-02-11T00:26:30.108Z,95.51
2023-02-11T00:28:58.003Z,97.32
2023-02-11T00:31:26.537Z,95.58
2023-02-11T00:33:54.551Z,93.89
2023-02-11T00:36:24.403Z,93.44
2023-02-11T00:38:53.935Z,94.93
2023-02-11T00:41:23.586Z,99.41
2023-02-11T00:43:51.988Z,99.77
2023-02-11T00:46:21.082Z,98.55
2023-02-11T00:48:49.028Z,98.40
2023-02-11T00:51:16.625Z,98.33
2023-02-11T00:53:44.318Z,99.11
2023-02-11T00:56:11.841Z,100.00
2023-02-11T00:58:40.716Z,100.00
2023-02-11T01:01:08.507Z,100.00
2023-02-11T01:03:36.082Z,100.00
2023-02-11T01:06:03.927Z,99.10
2023-02-11T01:08:31.576Z,97.72
2023-02-11T01:11:01.416Z,96.39
2023-02-11T01:13:29.769Z,94.75
2023-02-11T01:15:59.060Z,94.22
2023-02-11T01:18:27.685Z,94.95
2023-02-11T01:20:55.755Z,94.82
2023-02-11T01:23:23.399Z,94.71
2023-02-11T01:25:51.770Z,94.58
2023-02-11T01:28:21.875Z,94.64
2023-02-11T01:30:49.537Z,95.16
2023-02-11T01:33:18.787Z,95.60
2023-02-11T01:35:46.423Z,94.79
2023-02-11T01:38:17.746Z,98.01
2023-02-11T01:40:48.733Z,100.00
2023-02-11T01:43:16.224Z,98.40
2023-02-11T01:45:59.804Z,95.11
2023-02-11T01:48:32.802Z,93.99
2023-02-11T01:51:03.847Z,94.24
2023-02-11T01:53:50.958Z,93.36
2023-02-11T01:56:38.725Z,92.61
2023-02-11T01:59:12.436Z,93.09
2023-02-11T02:01:43.019Z,92.71
2023-02-11T02:04:13.999Z,96.08
2023-02-11T02:06:47.219Z,100.00
2023-02-11T02:09:21.010Z,100.00
2023-02-11T02:11:48.624Z,99.91
2023-02-11T02:14:16.148Z,95.21
2023-02-11T02:16:43.788Z,93.35
2023-02-11T02:19:51.512Z,91.30
2023-02-11T02:22:48.717Z,91.31
2023-02-11T02:25:37.038Z,92.09
2023-02-11T02:28:19.531Z,92.10
2023-02-11T02:31:16.674Z,92.19
2023-02-11T02:33:54.315Z,92.91
2023-02-11T02:36:29.384Z,92.88
2023-02-11T02:39:00.346Z,91.47
2023-02-11T02:41:31.147Z,91.47
2023-02-11T02:43:58.827Z,90.83
2023-02-11T02:46:28.455Z,93.62
2023-02-11T02:48:58.245Z,94.91
2023-02-11T02:51:46.877Z,95.90
2023-02-11T02:54:50.921Z,98.09
2023-02-11T02:57:30.740Z,98.72
2023-02-11T03:00:14.544Z,96.93
2023-02-11T03:02:53.260Z,95.06
2023-02-11T03:05:26.867Z,94.09
2023-02-11T03:08:02.670Z,95.80
2023-02-11T03:10:35.117Z,100.00
2023-02-11T03:13:04.195Z,100.00
2023-02-11T03:15:35.033Z,100.00
2023-02-11T03:18:04.836Z,98.77
2023-02-11T03:20:37.015Z,100.00
2023-02-11T03:23:08.323Z,97.92
2023-02-11T03:25:38.726Z,96.45
2023-02-11T03:28:14.794Z,95.35
2023-02-11T03:30:48.058Z,94.67
2023-02-11T03:33:21.136Z,91.87
2023-02-11T03:35:55.262Z,90.17
2023-02-11T03:38:26.148Z,89.17
2023-02-11T03:40:56.873Z,88.70
2023-02-11T03:43:29.667Z,89.00
2023-02-11T03:45:58.715Z,88.29
2023-02-11T03:48:30.827Z,87.94
2023-02-11T03:51:02.561Z,87.63
2023-02-11T03:53:30.070Z,87.41
2023-02-11T03:56:01.128Z,87.39
2023-02-11T03:58:28.683Z,86.88
2023-02-11T04:00:56.264Z,85.40
2023-02-11T04:03:23.820Z,85.21
2023-02-11T04:05:51.541Z,85.66
2023-02-11T04:08:20.519Z,85.01
2023-02-11T04:10:48.027Z,84.64
2023-02-11T04:13:15.601Z,85.18
2023-02-11T04:15:43.153Z,87.35
2023-02-11T04:18:10.776Z,87.61
2023-02-11T04:20:38.341Z,87.84
2023-02-11T04:23:05.874Z,88.35
2023-02-11T04:25:34.677Z,90.75
2023-02-11T04:28:02.286Z,93.14
2023-02-11T04:30:29.811Z,95.25
2023-02-11T04:32:58.782Z,92.48
2023-02-11T04:35:26.637Z,90.01
2023-02-11T04:37:54.113Z,88.46
2023-02-11T04:40:21.614Z,87.43
2023-02-11T04:42:50.526Z,87.08
2023-02-11T04:45:18.055Z,88.09
2023-02-11T04:47:45.572Z,91.36
2023-02-11T04:50:13.145Z,96.31
2023-02-11T04:52:40.658Z,99.20
2023-02-11T04:55:08.714Z,98.78
2023-02-11T04:57:36.225Z,99.18
2023-02-11T05:00:05.824Z,98.46
2023-02-11T05:02:33.434Z,94.49
2023-02-11T05:05:00.947Z,93.81
2023-02-11T05:07:28.462Z,93.79
2023-02-11T05:09:55.962Z,94.40
2023-02-11T05:12:23.446Z,94.13
2023-02-11T05:14:50.971Z,96.93
2023-02-11T05:17:19.773Z,95.17
2023-02-11T05:19:47.295Z,91.29
2023-02-11T05:22:14.782Z,89.41
2023-02-11T05:24:42.261Z,85.92
2023-02-11T05:27:10.187Z,84.33
2023-02-11T05:29:37.908Z,86.38
2023-02-11T05:32:07.289Z,84.58
2023-02-11T05:34:36.281Z,84.07
2023-02-11T05:37:03.783Z,84.79
2023-02-11T05:39:31.282Z,91.20
2023-02-11T05:41:58.765Z,90.58
2023-02-11T05:44:26.330Z,91.18
2023-02-11T05:46:53.867Z,92.58
2023-02-11T05:49:21.428Z,90.45
2023-02-11T05:51:50.334Z,90.92
2023-02-11T05:54:17.976Z,91.70
2023-02-11T05:56:45.466Z,91.91
2023-02-11T05:59:14.847Z,93.56
2023-02-11T06:01:42.443Z,87.97
2023-02-11T06:04:10.237Z,86.75
2023-02-11T06:06:37.840Z,85.48
2023-02-11T06:09:06.642Z,85.60
2023-02-11T06:11:34.205Z,83.17
2023-02-11T06:14:02.264Z,82.59
2023-02-11T06:16:30.054Z,89.38
2023-02-11T06:18:57.589Z,93.38
2023-02-11T06:21:30.797Z,97.45
2023-02-11T06:24:04.043Z,98.76
2023-02-11T06:26:33.078Z,97.43
2023-02-11T06:29:00.838Z,97.44
2023-02-11T06:31:28.741Z,93.33
2023-02-11T06:33:56.276Z,95.10
2023-02-11T06:36:23.853Z,96.26
2023-02-11T06:38:51.972Z,96.80
2023-02-11T06:41:21.130Z,95.94
2023-02-11T06:43:50.376Z,93.32
2023-02-11T06:46:17.919Z,96.89
2023-02-11T06:48:45.512Z,97.40
2023-02-11T06:51:14.446Z,99.80
2023-02-11T06:53:43.707Z,100.00
2023-02-11T06:56:12.951Z,100.00
2023-02-11T06:58:41.047Z,99.60
2023-02-11T07:01:12.678Z,98.81
2023-02-11T07:03:43.003Z,99.88
2023-02-11T07:06:14.325Z,100.00
2023-02-11T07:08:43.047Z,100.00
2023-02-11T07:11:12.094Z,100.00
2023-02-11T07:13:39.557Z,98.99
2023-02-11T07:16:07.999Z,97.26
2023-02-11T07:18:36.982Z,95.98
2023-02-11T07:21:05.866Z,93.33
2023-02-11T07:23:33.664Z,90.13
2023-02-11T07:26:03.907Z,90.01
2023-02-11T07:28:31.799Z,89.54
2023-02-11T07:30:59.457Z,89.92
2023-02-11T07:33:26.964Z,92.57
2023-02-11T07:35:55.806Z,91.94
2023-02-11T07:38:23.293Z,92.87
2023-02-11T07:40:50.773Z,93.58
2023-02-11T07:43:18.256Z,95.01
2023-02-11T07:45:45.740Z,98.31
2023-02-11T07:48:13.225Z,100.00
2023-02-11T07:50:40.757Z,100.00
2023-02-11T07:53:09.577Z,99.98
2023-02-11T07:55:37.034Z,100.00
2023-02-11T07:58:04.529Z,97.31
2023-02-11T08:00:32.000Z,95.13
2023-02-11T08:02:59.482Z,93.99
2023-02-11T08:05:27.194Z,94.83
2023-02-11T08:07:55.492Z,97.67
2023-02-11T08:10:24.330Z,98.04
2023-02-11T08:12:51.802Z,98.05
2023-02-11T08:15:19.297Z,97.05
2023-02-11T08:17:46.783Z,96.92
2023-02-11T08:20:14.425Z,97.45
2023-02-11T08:22:41.973Z,96.02
2023-02-11T08:25:09.516Z,94.94
2023-02-11T08:27:38.352Z,94.56
2023-02-11T08:30:06.699Z,94.85
2023-02-11T08:32:35.894Z,91.16
2023-02-11T08:35:03.538Z,88.41
2023-02-11T08:37:33.066Z,87.41
2023-02-11T08:40:00.726Z,85.12
2023-02-11T08:42:28.173Z,85.09
2023-02-11T08:44:57.077Z,84.52
2023-02-11T08:47:24.529Z,80.62
2023-02-11T08:49:52.024Z,78.40
2023-02-11T08:52:19.509Z,82.58
2023-02-11T08:54:47.111Z,79.83
2023-02-11T08:57:14.588Z,81.47
2023-02-11T08:59:42.078Z,79.79
2023-02-11T09:02:13.474Z,80.31
2023-02-11T09:04:41.255Z,76.20
2023-02-11T09:07:08.798Z,74.30
2023-02-11T09:09:36.411Z,73.30
2023-02-11T09:12:03.972Z,72.45
2023-02-11T09:14:31.463Z,75.32
2023-02-11T09:16:58.954Z,72.54
2023-02-11T09:19:27.838Z,74.33
2023-02-11T09:21:55.367Z,76.09
2023-02-11T09:24:22.840Z,77.26
2023-02-11T09:26:50.560Z,74.84
2023-02-11T09:29:18.085Z,75.80
2023-02-11T09:31:45.703Z,72.68
2023-02-11T09:34:15.405Z,73.32
2023-02-11T09:36:44.213Z,72.06
2023-02-11T09:39:14.419Z,72.10
2023-02-11T09:42:17.176Z,73.34
2023-02-11T09:44:46.785Z,73.16
2023-02-11T09:47:24.955Z,74.56
2023-02-11T09:49:58.121Z,72.38
2023-02-11T09:52:37.914Z,73.83
2023-02-11T09:55:12.249Z,75.83
2023-02-11T09:57:39.768Z,75.97
2023-02-11T10:00:20.396Z,75.47
2023-02-11T10:03:02.568Z,75.71
2023-02-11T10:05:44.226Z,72.40
2023-02-11T10:08:19.975Z,72.94
2023-02-11T10:10:53.816Z,72.11
2023-02-11T10:13:36.855Z,71.43
2023-02-11T10:16:16.440Z,68.65
2023-02-11T10:19:08.618Z,64.86
2023-02-11T10:21:46.457Z,62.18
2023-02-11T10:24:17.405Z,65.79
2023-02-11T10:26:45.938Z,64.50
2023-02-11T10:29:27.150Z,62.79
2023-02-11T10:31:57.261Z,63.17
2023-02-11T10:34:25.817Z,65.26
2023-02-11T10:36:53.417Z,62.16
2023-02-11T10:39:24.781Z,60.07
2023-02-11T10:41:55.411Z,60.49
2023-02-11T10:44:29.873Z,64.17
2023-02-11T10:46:58.300Z,67.67
2023-02-11T10:49:38.993Z,65.55
2023-02-11T10:52:19.522Z,66.09
2023-02-11T10:54:59.742Z,66.81
2023-02-11T10:57:31.460Z,70.24
2023-02-11T11:00:03.548Z,70.75
2023-02-11T11:02:34.662Z,68.37
2023-02-11T11:05:05.011Z,68.43
2023-02-11T11:07:34.671Z,66.91
2023-02-11T11:10:06.026Z,68.05
2023-02-11T11:12:40.278Z,69.24
2023-02-11T11:15:21.740Z,68.85
2023-02-11T11:17:49.923Z,67.64
2023-02-11T11:20:22.807Z,67.52
2023-02-11T11:22:52.273Z,64.29
2023-02-11T11:25:29.362Z,63.50
2023-02-11T11:28:00.018Z,62.93
2023-02-11T11:30:34.196Z,63.46
2023-02-11T11:33:02.414Z,67.04
2023-02-11T11:35:32.966Z,66.81
2023-02-11T11:38:03.164Z,67.47
2023-02-11T11:40:33.813Z,62.44
2023-02-11T11:43:08.222Z,62.06
2023-02-11T11:45:35.871Z,64.76
2023-02-11T11:48:10.617Z,61.70
2023-02-11T11:50:43.205Z,60.80
2023-02-11T11:53:17.302Z,65.81
2023-02-11T11:55:49.790Z,64.09
2023-02-11T11:58:19.975Z,63.72
2023-02-11T12:00:55.464Z,65.24
2023-02-11T12:03:41.456Z,69.62
2023-02-11T12:06:21.896Z,72.65
2023-02-11T12:09:00.004Z,70.99
2023-02-11T12:11:36.776Z,70.72
2023-02-11T12:14:15.106Z,68.14
2023-02-11T12:16:51.790Z,68.03
2023-02-11T12:20:03.784Z,68.69
2023-02-11T12:22:41.686Z,71.60
2023-02-11T12:25:27.145Z,65.50
2023-02-11T12:28:17.346Z,66.27
2023-02-11T12:30:57.567Z,73.32
2023-02-11T12:33:41.805Z,71.39
2023-02-11T12:36:16.116Z,70.59
2023-02-11T12:38:59.192Z,68.77
2023-02-11T12:41:58.921Z,71.48
2023-02-11T12:44:38.874Z,67.77
2023-02-11T12:47:15.446Z,68.54
2023-02-11T12:50:05.089Z,71.57
2023-02-11T12:52:50.182Z,76.06
2023-02-11T12:55:23.675Z,82.52
2023-02-11T12:57:52.998Z,85.51
2023-02-11T13:00:25.717Z,80.60
2023-02-11T13:03:00.721Z,77.82
2023-02-11T13:05:32.666Z,79.82
2023-02-11T13:08:05.618Z,81.39
2023-02-11T13:10:37.028Z,78.08
2023-02-11T13:13:17.636Z,80.84
2023-02-11T13:15:50.950Z,84.72
2023-02-11T13:18:44.771Z,80.67
2023-02-11T13:21:33.423Z,80.86
2023-02-11T13:24:09.954Z,84.71
2023-02-11T13:26:46.466Z,82.39
2023-02-11T13:29:26.366Z,81.35
2023-02-11T13:31:56.878Z,81.73
2023-02-11T13:34:26.671Z,80.15
2023-02-11T13:36:58.861Z,75.92
2023-02-11T13:39:26.440Z,77.90
2023-02-11T13:42:03.195Z,78.51
2023-02-11T13:44:33.653Z,78.20
2023-02-11T13:47:04.881Z,76.03
2023-02-11T13:49:36.638Z,81.30
2023-02-11T13:52:07.325Z,82.92
2023-02-11T13:54:38.664Z,80.44
2023-02-11T13:57:23.873Z,81.36
2023-02-11T13:59:53.057Z,83.11
2023-02-11T14:02:43.300Z,78.96
2023-02-11T14:05:47.673Z,77.14
2023-02-11T14:08:37.664Z,81.13
2023-02-11T14:11:28.059Z,83.15
2023-02-11T14:14:17.212Z,84.57
2023-02-11T14:17:24.877Z,79.52
2023-02-11T14:19:52.645Z,77.45
2023-02-11T14:22:26.674Z,80.64
2023-02-11T14:24:57.327Z,84.06
2023-02-11T14:27:30.369Z,83.25
2023-02-11T14:30:20.222Z,83.78
2023-02-11T14:33:01.856Z,84.31
2023-02-11T14:35:36.471Z,82.33
2023-02-11T14:38:14.023Z,82.08
2023-02-11T14:40:51.372Z,83.19
2023-02-11T14:43:21.872Z,84.93
2023-02-11T14:45:52.380Z,84.84
2023-02-11T14:48:21.420Z,84.70
2023-02-11T14:50:52.876Z,82.37
2023-02-11T14:53:24.364Z,80.16
2023-02-11T14:55:53.310Z,80.90
2023-02-11T14:58:22.768Z,81.63
2023-02-11T15:00:55.351Z,80.61
2023-02-11T15:03:28.227Z,82.01
2023-02-11T15:05:57.365Z,81.29
2023-02-11T15:08:24.962Z,82.89
2023-02-11T15:10:54.993Z,84.76
2023-02-11T15:13:27.109Z,85.60
2023-02-11T15:16:00.143Z,83.67
2023-02-11T15:18:34.885Z,84.54
2023-02-11T15:21:02.489Z,85.41
2023-02-11T15:23:31.908Z,88.65
2023-02-11T15:26:04.170Z,88.56
2023-02-11T15:28:35.145Z,91.75
2023-02-11T15:31:06.371Z,95.66
2023-02-11T15:33:34.150Z,95.96
2023-02-11T15:36:03.933Z,98.37
2023-02-11T15:38:31.960Z,98.27
2023-02-11T15:41:02.995Z,97.64
2023-02-11T15:43:50.669Z,95.73
2023-02-11T15:46:21.905Z,97.37
2023-02-11T15:48:51.570Z,96.82
2023-02-11T15:51:22.702Z,95.27
2023-02-11T15:53:56.570Z,96.99
2023-02-11T15:56:29.479Z,99.25
2023-02-11T15:59:00.012Z,100.00
2023-02-11T16:01:35.469Z,100.00
2023-02-11T16:04:04.827Z,100.00
2023-02-11T16:06:39.105Z,100.00
2023-02-11T16:09:23.056Z,100.00
2023-02-11T16:11:59.164Z,100.00
2023-02-11T16:14:31.685Z,100.00
2023-02-11T16:17:03.352Z,100.00
2023-02-11T16:19:32.505Z,100.00
2023-02-11T16:22:02.931Z,100.00
2023-02-11T16:24:34.024Z,100.00
2023-02-11T16:27:02.974Z,100.00
2023-02-11T16:29:32.451Z,100.00
2023-02-11T16:32:09.815Z,100.00
2023-02-11T16:34:38.110Z,100.00
2023-02-11T16:37:07.021Z,100.00
2023-02-11T16:39:34.860Z,100.00
2023-02-11T16:42:02.652Z,100.00
2023-02-11T16:44:30.681Z,100.00
2023-02-11T16:47:00.603Z,100.00
2023-02-11T16:49:32.150Z,100.00
2023-02-11T16:52:02.134Z,100.00
2023-02-11T16:54:30.764Z,100.00
2023-02-11T16:56:58.868Z,100.00
2023-02-11T16:59:26.626Z,100.00
2023-02-11T17:01:55.608Z,100.00
2023-02-11T17:04:27.106Z,100.00
2023-02-11T17:06:58.241Z,100.00
2023-02-11T17:09:30.512Z,100.00
2023-02-11T17:11:58.743Z,100.00
2023-02-11T17:14:26.225Z,100.00
2023-02-11T17:16:53.786Z,100.00
2023-02-11T17:19:22.299Z,100.00
2023-02-11T17:21:51.568Z,100.00
2023-02-11T17:24:21.346Z,100.00
2023-02-11T17:26:49.668Z,100.00
2023-02-11T17:29:19.135Z,100.00
2023-02-11T17:31:46.670Z,100.00
2023-02-11T17:34:14.265Z,100.00
2023-02-11T17:36:42.193Z,100.00
2023-02-11T17:39:09.744Z,100.00
2023-02-11T17:41:39.312Z,100.00
2023-02-11T17:44:07.836Z,100.00
2023-02-11T17:46:36.440Z,100.00
2023-02-11T17:49:04.922Z,100.00
2023-02-11T17:51:33.989Z,100.00
2023-02-11T17:54:03.850Z,100.00
2023-02-11T17:56:34.285Z,100.00
2023-02-11T17:59:03.682Z,100.00
2023-02-11T18:01:32.662Z,100.00
2023-02-11T18:04:00.543Z,100.00
2023-02-11T18:06:29.073Z,100.00
2023-02-11T18:08:59.712Z,100.00
2023-02-11T18:11:27.867Z,100.00
2023-02-11T18:13:55.386Z,100.00
2023-02-11T18:16:27.603Z,100.00
2023-02-11T18:18:55.341Z,100.00
2023-02-11T18:21:23.373Z,100.00
2023-02-11T18:23:51.062Z,100.00
2023-02-11T18:26:20.361Z,100.00
2023-02-11T18:28:48.856Z,100.00
2023-02-11T18:31:16.454Z,100.00
2023-02-11T18:33:47.771Z,100.00
2023-02-11T18:36:16.765Z,100.00
2023-02-11T18:38:45.027Z,100.00
2023-02-11T18:41:13.211Z,100.00
2023-02-11T18:43:40.994Z,100.00
2023-02-11T18:46:10.452Z,100.00
2023-02-11T18:48:38.397Z,100.00
2023-02-11T18:51:11.403Z,100.00
2023-02-11T18:53:39.031Z,100.00
2023-02-11T18:56:11.280Z,100.00
2023-02-11T18:58:39.359Z,100.00
2023-02-11T19:01:15.986Z,100.00
2023-02-11T19:03:43.977Z,100.00
2023-02-11T19:06:17.332Z,100.00
2023-02-11T19:08:44.881Z,100.00
2023-02-11T19:11:12.725Z,100.00
2023-02-11T19:13:40.282Z,100.00
2023-02-11T19:16:11.305Z,100.00
2023-02-11T19:18:39.641Z,100.00
2023-02-11T19:21:08.464Z,100.00
2023-02-11T19:23:37.499Z,100.00
2023-02-11T19:26:06.387Z,100.00
2023-02-11T19:28:35.223Z,100.00
2023-02-11T19:31:07.527Z,100.00
2023-02-11T19:33:35.186Z,100.00
2023-02-11T19:36:04.219Z,100.00
2023-02-11T19:38:31.774Z,100.00
2023-02-11T19:41:00.619Z,100.00
2023-02-11T19:43:28.550Z,100.00
2023-02-11T19:45:57.497Z,100.00
2023-02-11T19:48:25.588Z,100.00
2023-02-11T19:50:53.332Z,100.00
2023-02-11T19:53:20.834Z,100.00
2023-02-11T19:55:48.827Z,100.00
2023-02-11T19:58:18.571Z,100.00
2023-02-11T20:00:46.100Z,100.00
2023-02-11T20:03:13.584Z,100.00
2023-02-11T20:05:43.372Z,100.00
2023-02-11T20:08:11.135Z,100.00
2023-02-11T20:10:38.690Z,100.00
2023-02-11T20:13:06.508Z,100.00
2023-02-11T20:15:35.373Z,100.00
2023-02-11T20:18:02.911Z,100.00
2023-02-11T20:20:30.399Z,100.00
2023-02-11T20:22:58.538Z,100.00
2023-02-11T20:25:26.045Z,100.00
2023-02-11T20:27:53.552Z,100.00
2023-02-11T20:30:21.672Z,100.00
2023-02-11T20:32:50.502Z,100.00
2023-02-11T20:35:18.059Z,100.00
2023-02-11T20:37:45.700Z,100.00
2023-02-11T20:40:13.806Z,100.00
2023-02-11T20:42:41.296Z,100.00
2023-02-11T20:45:09.692Z,100.00
2023-02-11T20:47:38.204Z,100.00
2023-02-11T20:50:08.831Z,100.00
2023-02-11T20:52:36.881Z,100.00
2023-02-11T20:55:04.697Z,100.00
2023-02-11T20:57:34.975Z,100.00
2023-02-11T21:00:03.043Z,100.00
2023-02-11T21:02:31.109Z,100.00
2023-02-11T21:04:58.566Z,100.00
2023-02-11T21:07:29.322Z,100.00
2023-02-11T21:09:56.890Z,100.00
2023-02-11T21:12:24.822Z,100.00
2023-02-11T21:14:53.956Z,100.00
2023-02-11T21:17:21.859Z,100.00
2023-02-11T21:19:49.352Z,100.00
2023-02-11T21:22:16.838Z,100.00
2023-02-11T21:24:45.663Z,100.00
2023-02-11T21:27:13.308Z,100.00
2023-02-11T21:29:53.533Z,100.00
2023-02-11T21:32:21.888Z,100.00
2023-02-11T21:34:49.443Z,100.00
2023-02-11T21:37:17.040Z,100.00
2023-02-11T21:39:45.960Z,100.00
2023-02-11T21:42:13.421Z,100.00
2023-02-11T21:44:41.005Z,100.00
2023-02-11T21:47:08.566Z,100.00
2023-02-11T21:49:36.087Z,100.00
2023-02-11T21:52:03.675Z,100.00
2023-02-11T21:54:32.175Z,100.00
2023-02-11T21:57:02.997Z,100.00
2023-02-11T21:59:31.730Z,100.00
2023-02-11T22:01:59.732Z,100.00
2023-02-11T22:04:27.358Z,100.00
2023-02-11T22:06:54.878Z,100.00
2023-02-11T22:09:22.386Z,100.00
2023-02-11T22:11:50.240Z,100.00
2023-02-11T22:14:19.092Z,100.00
2023-02-11T22:16:46.930Z,100.00
2023-02-11T22:19:15.319Z,100.00
2023-02-11T22:21:43.566Z,100.00
2023-02-11T22:24:11.201Z,100.00
2023-02-11T22:26:39.358Z,100.00
2023-02-11T22:29:06.872Z,100.00
2023-02-11T22:31:36.527Z,100.00
2023-02-11T22:34:05.003Z,100.00
2023-02-11T22:36:34.619Z,100.00
2023-02-11T22:39:03.713Z,100.00
2023-02-11T22:41:31.743Z,100.00
2023-02-11T22:43:59.256Z,100.00
2023-02-11T22:46:27.114Z,100.00
2023-02-11T22:48:56.011Z,100.00
2023-02-11T22:51:25.488Z,100.00
2023-02-11T22:53:54.447Z,100.00
2023-02-11T22:56:22.864Z,100.00
2023-02-11T22:58:52.052Z,100.00
2023-02-11T23:01:20.441Z,100.00
2023-02-11T23:03:48.290Z,100.00
2023-02-11T23:06:18.089Z,100.00
2023-02-11T23:08:45.946Z,100.00
2023-02-11T23:11:16.462Z,100.00
2023-02-11T23:13:45.545Z,100.00
2023-02-11T23:16:15.259Z,100.00
2023-02-11T23:18:44.346Z,100.00
2023-02-11T23:21:15.764Z,100.00
2023-02-11T23:23:45.277Z,100.00
2023-02-11T23:26:15.495Z,100.00
2023-02-11T23:28:45.822Z,100.00
2023-02-11T23:31:15.002Z,100.00
2023-02-11T23:33:42.675Z,100.00
2023-02-11T23:36:10.510Z,100.00
2023-02-11T23:38:38.129Z,100.00
2023-02-11T23:41:07.300Z,100.00
2023-02-11T23:43:34.891Z,100.00
2023-02-11T23:46:02.513Z,100.00
2023-02-11T23:48:30.010Z,100.00
2023-02-11T23:50:57.513Z,100.00
2023-02-11T23:53:25.010Z,100.00
2023-02-11T23:55:52.752Z,100.00
2023-02-11T23:58:22.025Z,100.00
